Whick, Kentucky
Current Conditions -  °F | °C
As of 7:53 AM on Thursday 23 Oct 2014 (Local Time) from KJKL Reporting Station
Overcast Overcast  
Wind Chill: 45°   Ceiling: 2900
Heat Index: 45°   Visibility: 10mi
Dew Point: 39°   Wind: 0mph
Humidity: 80%   Direction: NA
Pressure: 30.22"   Gusts: NA
Location:  37.42°N, 83.37°W
Report Text: KJKL 231153Z AUTO 00000KT 10SM OVC029 07/04 A3022 RMK AO2 SLP236 T00720039 10083 20072 51002
Loading
Personal Weather Stations






























Interactive Weather Map
Tropical Storm Tracking
New forecast layout! Learn more

10-Day Weather Forecast

Advertisements
Track Severe Weather on mobile